createdAt,value
2023-07-25T00:00:40.089Z,1.67
2023-07-25T00:01:21.847Z,1.63
2023-07-25T00:02:03.495Z,1.25
2023-07-25T00:02:45.211Z,1.38
2023-07-25T00:03:26.958Z,1.30
2023-07-25T00:04:09.306Z,1.50
2023-07-25T00:04:51.122Z,1.50
2023-07-25T00:05:32.719Z,1.20
2023-07-25T00:06:14.453Z,1.60
2023-07-25T00:06:56.023Z,1.60
2023-07-25T00:07:37.575Z,1.60
2023-07-25T00:08:19.207Z,1.58
2023-07-25T00:09:00.820Z,1.40
2023-07-25T00:09:42.585Z,1.50
2023-07-25T00:10:24.594Z,1.30
2023-07-25T00:11:12.687Z,1.40
2023-07-25T00:11:54.277Z,1.48
2023-07-25T00:12:37.179Z,1.60
2023-07-25T00:13:18.865Z,1.30
2023-07-25T00:14:00.543Z,1.40
2023-07-25T00:14:42.194Z,1.85
2023-07-25T00:15:23.922Z,1.77
2023-07-25T00:16:05.656Z,1.45
2023-07-25T00:16:47.427Z,1.83
2023-07-25T00:17:29.125Z,1.50
2023-07-25T00:18:10.748Z,1.30
2023-07-25T00:18:52.338Z,1.67
2023-07-25T00:19:33.943Z,1.08
2023-07-25T00:20:15.664Z,1.38
2023-07-25T00:20:57.292Z,1.17
2023-07-25T00:21:38.917Z,1.70
2023-07-25T00:22:20.693Z,1.50
2023-07-25T00:23:02.367Z,1.80
2023-07-25T00:23:43.955Z,1.65
2023-07-25T00:24:25.551Z,1.73
2023-07-25T00:25:07.812Z,1.95
2023-07-25T00:25:49.578Z,1.70
2023-07-25T00:26:31.873Z,1.67
2023-07-25T00:27:13.498Z,1.40
2023-07-25T00:27:55.085Z,1.58
2023-07-25T00:28:36.739Z,1.73
2023-07-25T00:29:18.417Z,1.95
2023-07-25T00:30:00.025Z,1.42
2023-07-25T00:30:41.644Z,1.92
2023-07-25T00:31:23.408Z,1.65
2023-07-25T00:32:05.685Z,1.90
2023-07-25T00:32:47.359Z,1.75
2023-07-25T00:33:29.045Z,1.73
2023-07-25T00:34:10.621Z,1.90
2023-07-25T00:34:52.307Z,1.65
2023-07-25T00:35:33.938Z,1.85
2023-07-25T00:36:15.524Z,1.58
2023-07-25T00:36:57.217Z,1.73
2023-07-25T00:37:38.934Z,1.30
2023-07-25T00:38:20.651Z,1.42
2023-07-25T00:39:02.357Z,1.52
2023-07-25T00:39:43.948Z,1.40
2023-07-25T00:40:25.787Z,1.65
2023-07-25T00:41:07.475Z,1.48
2023-07-25T00:41:49.526Z,1.30
2023-07-25T00:42:31.380Z,1.20
2023-07-25T00:43:12.987Z,1.50
2023-07-25T00:43:54.548Z,1.45
2023-07-25T00:44:36.132Z,1.40
2023-07-25T00:45:17.837Z,1.30
2023-07-25T00:45:59.973Z,1.27
2023-07-25T00:46:43.321Z,1.00
2023-07-25T00:47:25.371Z,1.33
2023-07-25T00:48:07.081Z,1.23
2023-07-25T00:48:48.941Z,1.38
2023-07-25T00:49:32.046Z,1.20
2023-07-25T00:50:13.690Z,1.40
2023-07-25T00:50:55.628Z,1.23
2023-07-25T00:51:41.965Z,1.40
2023-07-25T00:52:23.774Z,1.45
2023-07-25T00:53:07.336Z,1.30
2023-07-25T00:53:49.327Z,1.23
2023-07-25T00:54:30.954Z,1.50
2023-07-25T00:55:13.955Z,1.13
2023-07-25T00:55:56.550Z,1.30
2023-07-25T00:56:38.375Z,1.33
2023-07-25T00:57:20.741Z,1.60
2023-07-25T00:58:02.825Z,1.55
2023-07-25T00:58:45.510Z,1.23
2023-07-25T00:59:27.142Z,1.75
2023-07-25T01:00:09.186Z,1.38
2023-07-25T01:00:50.819Z,1.38
2023-07-25T01:01:32.902Z,1.50
2023-07-25T01:02:16.166Z,1.40
2023-07-25T01:02:57.889Z,1.50
2023-07-25T01:03:40.949Z,1.83
2023-07-25T01:04:22.876Z,1.38
2023-07-25T01:05:05.201Z,1.90
2023-07-25T01:05:50.212Z,1.83
2023-07-25T01:06:33.372Z,1.73
2023-07-25T01:07:15.347Z,1.58
2023-07-25T01:07:57.192Z,1.52
2023-07-25T01:08:53.807Z,1.80
2023-07-25T01:09:43.682Z,1.30
2023-07-25T01:10:25.316Z,1.33
2023-07-25T01:11:08.354Z,1.40
2023-07-25T01:11:50.114Z,1.40
2023-07-25T01:12:31.709Z,1.40
2023-07-25T01:13:13.372Z,1.33
2023-07-25T01:13:55.485Z,1.35
2023-07-25T01:14:38.826Z,1.33
2023-07-25T01:15:20.502Z,1.33
2023-07-25T01:16:02.273Z,1.42
2023-07-25T01:16:44.183Z,1.35
2023-07-25T01:17:28.348Z,1.50
2023-07-25T01:18:11.207Z,1.95
2023-07-25T01:18:55.103Z,1.60
2023-07-25T01:19:38.796Z,1.17
2023-07-25T01:20:20.912Z,1.77
2023-07-25T01:21:03.257Z,1.55
2023-07-25T01:21:45.114Z,1.30
2023-07-25T01:22:27.856Z,1.35
2023-07-25T01:23:11.850Z,1.60
2023-07-25T01:23:53.562Z,1.67
2023-07-25T01:24:43.322Z,1.15
2023-07-25T01:25:26.090Z,1.40
2023-07-25T01:26:07.736Z,1.10
2023-07-25T01:26:49.326Z,1.45
2023-07-25T01:27:30.929Z,1.52
2023-07-25T01:28:12.666Z,1.50
2023-07-25T01:28:54.341Z,1.45
2023-07-25T01:29:35.983Z,1.80
2023-07-25T01:30:17.655Z,1.98
2023-07-25T01:30:59.571Z,1.52
2023-07-25T01:31:41.313Z,1.55
2023-07-25T01:32:23.063Z,1.48
2023-07-25T01:33:04.747Z,1.70
2023-07-25T01:33:46.496Z,1.60
2023-07-25T01:34:28.207Z,1.67
2023-07-25T01:35:09.882Z,1.52
2023-07-25T01:35:51.530Z,1.70
2023-07-25T01:36:33.215Z,1.58
2023-07-25T01:37:14.834Z,1.80
2023-07-25T01:37:56.486Z,1.25
2023-07-25T01:38:38.094Z,1.20
2023-07-25T01:39:19.802Z,1.80
2023-07-25T01:40:01.542Z,1.38
2023-07-25T01:40:43.464Z,1.33
2023-07-25T01:41:25.080Z,1.27
2023-07-25T01:42:06.909Z,1.10
2023-07-25T01:42:48.463Z,1.63
2023-07-25T01:43:30.109Z,1.52
2023-07-25T01:44:12.114Z,1.40
2023-07-25T01:44:53.777Z,1.55
2023-07-25T01:45:35.783Z,1.38
2023-07-25T01:46:17.444Z,1.48
2023-07-25T01:46:59.135Z,1.30
2023-07-25T01:47:41.020Z,1.40
2023-07-25T01:48:22.740Z,1.35
2023-07-25T01:49:04.380Z,1.00
2023-07-25T01:49:46.000Z,1.45
2023-07-25T01:50:28.549Z,1.48
2023-07-25T01:51:10.168Z,1.30
2023-07-25T01:51:51.800Z,1.42
2023-07-25T01:52:34.628Z,1.33
2023-07-25T01:53:16.785Z,1.65
2023-07-25T01:53:59.980Z,1.40
2023-07-25T01:54:41.614Z,1.45
2023-07-25T01:55:23.271Z,1.52
2023-07-25T01:56:04.990Z,1.25
2023-07-25T01:56:50.041Z,1.27
2023-07-25T01:57:32.413Z,1.40
2023-07-25T01:58:14.137Z,1.45
2023-07-25T01:58:55.761Z,1.80
2023-07-25T01:59:37.504Z,1.25
2023-07-25T02:00:19.159Z,1.20
2023-07-25T02:01:01.297Z,1.55
2023-07-25T02:01:45.357Z,1.55
2023-07-25T02:02:27.166Z,1.67
2023-07-25T02:03:11.935Z,1.52
2023-07-25T02:03:53.786Z,1.33
2023-07-25T02:04:35.539Z,1.20
2023-07-25T02:05:20.180Z,1.45
2023-07-25T02:06:01.808Z,1.20
2023-07-25T02:06:43.680Z,1.60
2023-07-25T02:07:26.755Z,1.75
2023-07-25T02:08:12.629Z,1.50
2023-07-25T02:08:54.239Z,2.00
2023-07-25T02:09:35.964Z,1.60
2023-07-25T02:10:17.730Z,1.40
2023-07-25T02:10:59.422Z,1.70
2023-07-25T02:11:41.046Z,1.77
2023-07-25T02:12:23.167Z,1.88
2023-07-25T02:13:06.874Z,1.80
2023-07-25T02:13:48.436Z,1.77
2023-07-25T02:14:30.072Z,1.70
2023-07-25T02:15:11.834Z,2.15
2023-07-25T02:15:53.515Z,1.80
2023-07-25T02:16:37.965Z,1.70
2023-07-25T02:17:20.734Z,2.03
2023-07-25T02:18:03.273Z,1.95
2023-07-25T02:18:44.961Z,1.60
2023-07-25T02:19:26.776Z,1.48
2023-07-25T02:20:09.612Z,2.08
2023-07-25T02:20:51.354Z,1.45
2023-07-25T02:21:33.742Z,1.67
2023-07-25T02:22:15.580Z,1.50
2023-07-25T02:22:57.197Z,1.73
2023-07-25T02:23:38.848Z,1.70
2023-07-25T02:24:20.654Z,1.77
2023-07-25T02:25:02.454Z,1.60
2023-07-25T02:25:46.908Z,1.70
2023-07-25T02:26:28.786Z,2.22
2023-07-25T02:27:10.426Z,2.00
2023-07-25T02:27:52.099Z,1.95
2023-07-25T02:28:35.930Z,1.98
2023-07-25T02:29:18.154Z,2.30
2023-07-25T02:29:59.753Z,2.55
2023-07-25T02:30:41.412Z,2.40
2023-07-25T02:31:23.014Z,2.05
2023-07-25T02:32:05.116Z,1.88
2023-07-25T02:32:48.281Z,2.00
2023-07-25T02:33:30.218Z,2.20
2023-07-25T02:34:12.540Z,1.80
2023-07-25T02:34:54.170Z,2.00
2023-07-25T02:35:36.504Z,1.88
2023-07-25T02:36:18.346Z,1.65
2023-07-25T02:37:02.300Z,1.90
2023-07-25T02:37:49.503Z,1.75
2023-07-25T02:38:31.160Z,1.70
2023-07-25T02:39:13.304Z,1.42
2023-07-25T02:39:57.530Z,1.67
2023-07-25T02:40:39.130Z,1.60
2023-07-25T02:41:20.781Z,1.77
2023-07-25T02:42:02.431Z,1.90
2023-07-25T02:42:44.032Z,2.10
2023-07-25T02:43:25.626Z,1.95
2023-07-25T02:44:07.250Z,2.08
2023-07-25T02:44:48.942Z,1.92
2023-07-25T02:45:30.536Z,2.00
2023-07-25T02:46:12.478Z,2.20
2023-07-25T02:46:54.151Z,1.92
2023-07-25T02:47:35.869Z,1.80
2023-07-25T02:48:17.726Z,1.63
2023-07-25T02:48:59.498Z,1.50
2023-07-25T02:49:41.148Z,1.75
2023-07-25T02:50:22.802Z,1.92
2023-07-25T02:51:04.456Z,2.20
2023-07-25T02:51:46.158Z,1.88
2023-07-25T02:52:27.990Z,1.98
2023-07-25T02:53:09.801Z,1.90
2023-07-25T02:53:51.396Z,1.90
2023-07-25T02:54:33.041Z,2.17
2023-07-25T02:55:14.660Z,1.80
2023-07-25T02:55:56.551Z,2.00
2023-07-25T02:56:38.554Z,1.90
2023-07-25T02:57:20.187Z,1.75
2023-07-25T02:58:02.029Z,1.80
2023-07-25T02:58:43.634Z,1.77
2023-07-25T02:59:25.230Z,1.48
2023-07-25T03:00:08.437Z,1.98
2023-07-25T03:00:51.122Z,1.80
2023-07-25T03:01:33.054Z,2.10
2023-07-25T03:02:14.968Z,1.95
2023-07-25T03:02:56.843Z,2.10
2023-07-25T03:03:38.617Z,2.05
2023-07-25T03:04:20.245Z,2.00
2023-07-25T03:05:01.974Z,1.80
2023-07-25T03:05:43.819Z,2.05
2023-07-25T03:06:25.534Z,1.55
2023-07-25T03:07:07.168Z,2.08
2023-07-25T03:07:49.981Z,1.90
2023-07-25T03:08:31.613Z,1.80
2023-07-25T03:09:13.349Z,1.95
2023-07-25T03:09:55.095Z,1.90
2023-07-25T03:10:36.841Z,1.70
2023-07-25T03:11:18.500Z,1.92
2023-07-25T03:12:00.275Z,2.05
2023-07-25T03:12:41.913Z,1.88
2023-07-25T03:13:23.567Z,1.45
2023-07-25T03:14:05.224Z,1.63
2023-07-25T03:14:46.931Z,1.70
2023-07-25T03:15:28.796Z,1.73
2023-07-25T03:16:10.634Z,1.70
2023-07-25T03:16:52.705Z,2.25
2023-07-25T03:17:34.397Z,2.47
2023-07-25T03:18:16.187Z,2.42
2023-07-25T03:18:57.960Z,1.98
2023-07-25T03:19:39.694Z,2.03
2023-07-25T03:20:21.541Z,1.80
2023-07-25T03:21:03.237Z,1.52
2023-07-25T03:21:44.963Z,1.88
2023-07-25T03:22:26.738Z,1.70
2023-07-25T03:23:08.360Z,1.42
2023-07-25T03:23:50.263Z,1.83
2023-07-25T03:24:31.940Z,1.75
2023-07-25T03:25:13.612Z,1.45
2023-07-25T03:25:55.261Z,1.58
2023-07-25T03:26:37.300Z,1.48
2023-07-25T03:27:19.263Z,1.40
2023-07-25T03:28:00.934Z,1.48
2023-07-25T03:28:42.595Z,1.63
2023-07-25T03:29:24.291Z,1.80
2023-07-25T03:30:06.653Z,1.80
2023-07-25T03:30:48.376Z,1.98
2023-07-25T03:31:30.357Z,2.20
2023-07-25T03:32:12.200Z,1.75
2023-07-25T03:32:53.884Z,1.80
2023-07-25T03:33:35.662Z,2.00
2023-07-25T03:34:17.398Z,2.00
2023-07-25T03:34:59.059Z,2.08
2023-07-25T03:35:40.817Z,1.88
2023-07-25T03:36:22.529Z,2.10
2023-07-25T03:37:04.799Z,2.00
2023-07-25T03:37:46.472Z,2.00
2023-07-25T03:38:28.136Z,1.95
2023-07-25T03:39:09.719Z,1.75
2023-07-25T03:39:51.377Z,2.08
2023-07-25T03:40:34.243Z,2.10
2023-07-25T03:41:16.165Z,2.08
2023-07-25T03:41:57.897Z,2.35
2023-07-25T03:42:39.502Z,2.28
2023-07-25T03:43:22.005Z,2.33
2023-07-25T03:44:04.171Z,2.28
2023-07-25T03:44:45.830Z,2.03
2023-07-25T03:45:27.452Z,2.03
2023-07-25T03:46:09.175Z,2.47
2023-07-25T03:46:50.776Z,2.28
2023-07-25T03:47:32.642Z,1.95
2023-07-25T03:48:15.120Z,1.95
2023-07-25T03:48:58.068Z,1.90
2023-07-25T03:49:39.743Z,2.10
2023-07-25T03:50:21.556Z,2.38
2023-07-25T03:51:03.348Z,1.90
2023-07-25T03:51:44.982Z,1.98
2023-07-25T03:52:28.264Z,1.60
2023-07-25T03:53:10.013Z,1.98
2023-07-25T03:53:51.674Z,1.92
2023-07-25T03:54:33.361Z,1.83
2023-07-25T03:55:15.053Z,1.95
2023-07-25T03:55:56.715Z,2.00
2023-07-25T03:56:38.795Z,1.90
2023-07-25T03:57:20.432Z,2.35
2023-07-25T03:58:02.062Z,2.28
2023-07-25T03:58:43.752Z,2.17
2023-07-25T03:59:25.451Z,1.95
2023-07-25T04:00:07.725Z,2.00
2023-07-25T04:00:53.666Z,2.08
2023-07-25T04:01:35.538Z,1.75
2023-07-25T04:02:17.355Z,1.40
2023-07-25T04:03:14.503Z,1.95
2023-07-25T04:03:57.785Z,1.90
2023-07-25T04:04:39.613Z,2.15
2023-07-25T04:05:21.432Z,1.85
2023-07-25T04:06:03.193Z,2.45
2023-07-25T04:06:44.864Z,2.70
2023-07-25T04:07:26.453Z,2.00
2023-07-25T04:08:08.068Z,2.00
2023-07-25T04:08:49.695Z,1.70
2023-07-25T04:09:31.370Z,2.00
2023-07-25T04:10:12.952Z,1.92
2023-07-25T04:10:55.119Z,1.80
2023-07-25T04:11:36.811Z,1.98
2023-07-25T04:12:18.489Z,1.90
2023-07-25T04:13:00.127Z,1.67
2023-07-25T04:13:41.898Z,1.65
2023-07-25T04:14:24.342Z,1.98
2023-07-25T04:15:06.394Z,1.58
2023-07-25T04:15:48.059Z,2.00
2023-07-25T04:16:29.753Z,1.90
2023-07-25T04:17:11.399Z,1.73
2023-07-25T04:17:53.143Z,2.10
2023-07-25T04:18:34.872Z,1.67
2023-07-25T04:19:16.525Z,1.52
2023-07-25T04:19:58.234Z,1.50
2023-07-25T04:20:40.142Z,1.77
2023-07-25T04:21:21.933Z,1.52
2023-07-25T04:22:03.693Z,1.88
2023-07-25T04:22:45.334Z,2.00
2023-07-25T04:23:27.395Z,1.80
2023-07-25T04:24:09.322Z,1.95
2023-07-25T04:24:51.125Z,2.10
2023-07-25T04:25:32.778Z,2.20
2023-07-25T04:26:14.433Z,1.80
2023-07-25T04:26:56.097Z,2.20
2023-07-25T04:27:37.722Z,1.70
2023-07-25T04:28:19.304Z,2.60
2023-07-25T04:29:00.906Z,2.03
2023-07-25T04:29:42.691Z,2.22
2023-07-25T04:30:24.309Z,1.92
2023-07-25T04:31:06.030Z,2.00
2023-07-25T04:31:48.584Z,2.00
2023-07-25T04:32:30.228Z,2.15
2023-07-25T04:33:11.879Z,1.90
2023-07-25T04:33:53.537Z,2.40
2023-07-25T04:34:35.284Z,2.53
2023-07-25T04:35:17.121Z,2.30
2023-07-25T04:35:58.797Z,2.30
2023-07-25T04:36:40.553Z,2.10
2023-07-25T04:37:22.262Z,2.40
2023-07-25T04:38:03.946Z,1.80
2023-07-25T04:38:46.127Z,2.08
2023-07-25T04:39:27.861Z,2.35
2023-07-25T04:40:10.060Z,1.83
2023-07-25T04:40:51.902Z,1.75
2023-07-25T04:41:33.838Z,1.98
2023-07-25T04:42:15.625Z,2.20
2023-07-25T04:42:57.325Z,2.00
2023-07-25T04:43:38.906Z,2.22
2023-07-25T04:44:20.582Z,2.05
2023-07-25T04:45:04.051Z,2.30
2023-07-25T04:45:50.706Z,2.22
2023-07-25T04:46:36.252Z,1.90
2023-07-25T04:47:17.903Z,1.80
2023-07-25T04:47:59.618Z,1.88
2023-07-25T04:48:41.358Z,1.65
2023-07-25T04:49:23.070Z,1.48
2023-07-25T04:50:05.070Z,1.55
2023-07-25T04:50:46.665Z,1.35
2023-07-25T04:51:28.367Z,1.52
2023-07-25T04:52:10.032Z,1.63
2023-07-25T04:52:51.710Z,1.13
2023-07-25T04:53:34.788Z,1.40
2023-07-25T04:54:16.487Z,1.65
2023-07-25T04:54:59.919Z,1.45
2023-07-25T04:55:41.588Z,1.50
2023-07-25T04:56:23.276Z,1.45
2023-07-25T04:57:05.639Z,1.58
2023-07-25T04:57:47.384Z,1.70
2023-07-25T04:58:29.207Z,1.30
2023-07-25T04:59:10.800Z,1.33
2023-07-25T04:59:53.493Z,1.80
2023-07-25T05:00:35.060Z,1.42
2023-07-25T05:01:19.051Z,1.30
2023-07-25T05:02:00.733Z,1.60
2023-07-25T05:02:42.659Z,1.45
2023-07-25T05:03:27.148Z,1.50
2023-07-25T05:04:08.905Z,1.63
2023-07-25T05:04:50.744Z,1.80
2023-07-25T05:05:32.359Z,1.13
2023-07-25T05:06:14.186Z,1.40
2023-07-25T05:06:55.938Z,1.20
2023-07-25T05:07:37.633Z,1.38
2023-07-25T05:08:19.243Z,1.73
2023-07-25T05:09:01.538Z,1.35
2023-07-25T05:09:43.279Z,1.27
2023-07-25T05:10:24.937Z,1.40
2023-07-25T05:11:06.563Z,1.88
2023-07-25T05:11:48.416Z,2.08
2023-07-25T05:12:30.173Z,2.33
2023-07-25T05:13:11.826Z,1.80
2023-07-25T05:13:53.521Z,1.90
2023-07-25T05:14:35.112Z,2.20
2023-07-25T05:15:16.863Z,2.08
2023-07-25T05:15:58.523Z,1.98
2023-07-25T05:16:40.210Z,2.03
2023-07-25T05:17:21.913Z,1.60
2023-07-25T05:18:03.735Z,1.52
2023-07-25T05:18:45.465Z,1.70
2023-07-25T05:19:27.148Z,1.80
2023-07-25T05:20:09.182Z,1.70
2023-07-25T05:20:50.887Z,1.65
2023-07-25T05:21:32.738Z,1.70
2023-07-25T05:22:14.610Z,2.45
2023-07-25T05:22:56.223Z,2.05
2023-07-25T05:23:37.858Z,2.10
2023-07-25T05:24:19.470Z,1.90
2023-07-25T05:25:01.135Z,2.15
2023-07-25T05:25:44.139Z,1.88
2023-07-25T05:26:25.963Z,2.20
2023-07-25T05:27:07.596Z,1.85
2023-07-25T05:27:49.333Z,2.13
2023-07-25T05:28:30.960Z,2.10
2023-07-25T05:29:12.654Z,2.20
2023-07-25T05:29:54.257Z,1.88
2023-07-25T05:30:35.884Z,1.95
2023-07-25T05:31:17.586Z,1.70
2023-07-25T05:31:59.279Z,1.70
2023-07-25T05:32:41.293Z,1.70
2023-07-25T05:33:23.008Z,1.50
2023-07-25T05:34:04.643Z,1.80
2023-07-25T05:34:46.326Z,3.08
2023-07-25T05:35:27.954Z,1.70
2023-07-25T05:36:09.650Z,1.70
2023-07-25T05:36:51.273Z,1.60
2023-07-25T05:37:37.779Z,1.58
2023-07-25T05:38:19.345Z,1.55
2023-07-25T05:39:01.022Z,1.48
2023-07-25T05:39:42.699Z,1.40
2023-07-25T05:40:24.563Z,1.20
2023-07-25T05:41:06.313Z,1.30
2023-07-25T05:41:47.923Z,1.30
2023-07-25T05:42:30.293Z,1.45
2023-07-25T05:43:16.194Z,1.42
2023-07-25T05:43:57.778Z,1.15
2023-07-25T05:44:39.441Z,1.17
2023-07-25T05:45:21.200Z,1.20
2023-07-25T05:46:02.927Z,1.20
2023-07-25T05:46:44.563Z,1.05
2023-07-25T05:47:27.148Z,1.35
2023-07-25T05:48:08.722Z,1.00
2023-07-25T05:48:50.579Z,0.95
2023-07-25T05:49:32.429Z,1.80
2023-07-25T05:50:14.510Z,1.83
2023-07-25T05:50:56.115Z,1.25
2023-07-25T05:51:37.738Z,1.35
2023-07-25T05:52:19.440Z,1.08
2023-07-25T05:53:01.068Z,1.30
2023-07-25T05:53:42.749Z,1.40
2023-07-25T05:54:24.389Z,1.10
2023-07-25T05:55:07.298Z,1.50
2023-07-25T05:55:48.969Z,1.30
2023-07-25T05:56:30.588Z,1.15
2023-07-25T05:57:12.276Z,1.35
2023-07-25T05:57:53.917Z,1.45
2023-07-25T05:58:35.524Z,1.52
2023-07-25T05:59:17.673Z,1.10
2023-07-25T05:59:59.222Z,0.80
2023-07-25T06:00:40.868Z,1.10
2023-07-25T06:01:22.476Z,1.15
2023-07-25T06:02:06.961Z,1.30
2023-07-25T06:02:48.703Z,1.30
2023-07-25T06:03:30.413Z,1.92
2023-07-25T06:04:14.647Z,1.17
2023-07-25T06:04:56.218Z,1.05
2023-07-25T06:05:37.929Z,1.40
2023-07-25T06:06:19.568Z,1.63
2023-07-25T06:07:01.244Z,1.17
2023-07-25T06:07:42.865Z,1.67
2023-07-25T06:08:24.509Z,1.30
2023-07-25T06:09:06.184Z,1.17
2023-07-25T06:09:47.818Z,1.05
2023-07-25T06:10:29.380Z,1.02
2023-07-25T06:11:11.094Z,1.10
2023-07-25T06:11:53.993Z,1.27
2023-07-25T06:12:35.826Z,1.35
2023-07-25T06:13:17.724Z,1.25
2023-07-25T06:13:59.318Z,1.30
2023-07-25T06:14:40.959Z,1.10
2023-07-25T06:15:22.585Z,1.00
2023-07-25T06:16:04.867Z,1.40
2023-07-25T06:16:46.531Z,1.17
2023-07-25T06:17:28.198Z,1.13
2023-07-25T06:18:09.833Z,1.40
2023-07-25T06:18:51.497Z,1.30
2023-07-25T06:19:33.125Z,1.48
2023-07-25T06:20:15.035Z,1.25
2023-07-25T06:20:56.778Z,1.05
2023-07-25T06:21:38.431Z,1.10
2023-07-25T06:22:20.075Z,0.98
2023-07-25T06:23:02.759Z,1.08
2023-07-25T06:23:44.543Z,1.20
2023-07-25T06:24:26.326Z,1.20
2023-07-25T06:25:13.901Z,1.30
2023-07-25T06:25:55.607Z,1.08
2023-07-25T06:26:37.191Z,1.20
2023-07-25T06:27:18.832Z,1.30
2023-07-25T06:28:01.553Z,1.17
2023-07-25T06:28:43.295Z,1.00
2023-07-25T06:29:24.969Z,1.38
2023-07-25T06:30:07.414Z,1.15
2023-07-25T06:30:49.350Z,1.00
2023-07-25T06:31:31.342Z,1.13
2023-07-25T06:32:13.340Z,1.30
2023-07-25T06:32:55.588Z,1.60
2023-07-25T06:33:37.380Z,1.30
2023-07-25T06:34:18.993Z,1.25
2023-07-25T06:35:00.629Z,1.27
2023-07-25T06:35:42.366Z,1.25
2023-07-25T06:36:24.000Z,1.00
2023-07-25T06:37:06.137Z,0.90
2023-07-25T06:37:47.764Z,1.20
2023-07-25T06:38:29.398Z,1.00
2023-07-25T06:39:11.005Z,0.98
2023-07-25T06:39:53.939Z,0.90
2023-07-25T06:40:36.237Z,1.08
2023-07-25T06:41:17.925Z,1.08
2023-07-25T06:41:59.544Z,0.82
2023-07-25T06:42:43.701Z,1.13
2023-07-25T06:43:27.905Z,0.93
2023-07-25T06:44:11.098Z,1.23
2023-07-25T06:44:54.078Z,1.33
2023-07-25T06:45:35.724Z,1.20
2023-07-25T06:46:17.459Z,1.27
2023-07-25T06:46:59.163Z,0.98
2023-07-25T06:47:40.966Z,0.90
2023-07-25T06:48:22.840Z,1.30
2023-07-25T06:49:04.469Z,1.42
2023-07-25T06:49:46.095Z,1.27
2023-07-25T06:50:27.741Z,1.75
2023-07-25T06:51:09.823Z,1.30
2023-07-25T06:51:51.567Z,1.70
2023-07-25T06:52:33.276Z,1.30
2023-07-25T06:53:14.959Z,1.30
2023-07-25T06:53:56.593Z,1.55
2023-07-25T06:54:42.423Z,1.05
2023-07-25T06:55:24.081Z,2.70
2023-07-25T06:56:05.670Z,1.55
2023-07-25T06:56:47.347Z,0.98
2023-07-25T06:57:30.102Z,1.08
2023-07-25T06:58:13.701Z,1.27
2023-07-25T06:58:56.302Z,0.93
2023-07-25T06:59:37.883Z,1.23
2023-07-25T07:00:19.948Z,0.90
2023-07-25T07:01:01.657Z,1.10
2023-07-25T07:01:43.459Z,1.02
2023-07-25T07:02:25.199Z,1.00
2023-07-25T07:03:07.452Z,1.17
2023-07-25T07:03:49.139Z,0.68
2023-07-25T07:04:30.851Z,0.90
2023-07-25T07:05:28.033Z,0.80
2023-07-25T07:06:11.508Z,0.90
2023-07-25T07:06:53.105Z,1.10
2023-07-25T07:07:34.932Z,0.77
2023-07-25T07:08:16.597Z,1.02
2023-07-25T07:08:58.538Z,0.82
2023-07-25T07:09:40.192Z,0.80
2023-07-25T07:10:21.834Z,1.08
2023-07-25T07:11:03.545Z,0.63
2023-07-25T07:11:45.300Z,0.82
2023-07-25T07:12:26.957Z,1.10
2023-07-25T07:13:08.641Z,0.80
2023-07-25T07:13:50.319Z,0.85
2023-07-25T07:14:31.995Z,0.90
2023-07-25T07:15:13.966Z,0.88
2023-07-25T07:15:55.727Z,0.80
2023-07-25T07:16:37.564Z,0.93
2023-07-25T07:17:19.403Z,1.00
2023-07-25T07:18:01.131Z,0.85
2023-07-25T07:18:42.919Z,0.80
2023-07-25T07:19:24.640Z,0.80
2023-07-25T07:20:06.996Z,0.90
2023-07-25T07:20:49.789Z,0.85
2023-07-25T07:21:31.682Z,0.77
2023-07-25T07:22:13.673Z,0.82
2023-07-25T07:22:55.412Z,1.10
2023-07-25T07:23:37.035Z,0.80
2023-07-25T07:24:19.251Z,0.82
2023-07-25T07:25:00.941Z,0.70
2023-07-25T07:25:44.367Z,0.70
2023-07-25T07:26:26.063Z,0.70
2023-07-25T07:27:07.883Z,0.82
2023-07-25T07:27:49.544Z,0.63
2023-07-25T07:28:31.203Z,0.70
2023-07-25T07:29:13.014Z,0.77
2023-07-25T07:29:54.644Z,0.80
2023-07-25T07:30:36.307Z,0.90
2023-07-25T07:31:24.207Z,0.70
2023-07-25T07:32:06.692Z,0.90
2023-07-25T07:32:48.524Z,0.80
2023-07-25T07:33:31.126Z,0.75
2023-07-25T07:34:16.159Z,0.80
2023-07-25T07:34:58.213Z,0.90
2023-07-25T07:35:39.775Z,0.80
2023-07-25T07:36:21.436Z,0.80
2023-07-25T07:37:03.344Z,0.77
2023-07-25T07:37:45.070Z,0.70
2023-07-25T07:38:26.674Z,0.70
2023-07-25T07:39:08.508Z,0.70
2023-07-25T07:39:50.131Z,0.70
2023-07-25T07:40:31.860Z,0.70
2023-07-25T07:41:13.541Z,0.75
2023-07-25T07:41:55.485Z,0.65
2023-07-25T07:42:37.063Z,0.90
2023-07-25T07:43:18.864Z,0.80
2023-07-25T07:44:00.541Z,0.73
2023-07-25T07:44:42.259Z,0.60
2023-07-25T07:45:25.214Z,0.73
2023-07-25T07:46:06.936Z,0.80
2023-07-25T07:46:48.690Z,0.80
2023-07-25T07:47:30.345Z,1.10
2023-07-25T07:48:12.123Z,0.80
2023-07-25T07:48:53.779Z,0.80
2023-07-25T07:49:35.575Z,0.60
2023-07-25T07:50:17.173Z,0.80
2023-07-25T07:51:04.140Z,0.73
2023-07-25T07:51:57.568Z,0.63
2023-07-25T07:52:47.763Z,0.85
2023-07-25T07:53:29.447Z,0.73
2023-07-25T07:54:11.048Z,0.65
2023-07-25T07:54:52.719Z,0.80
2023-07-25T07:55:34.454Z,0.82
2023-07-25T07:56:16.132Z,0.80
2023-07-25T07:56:57.942Z,0.75
2023-07-25T07:57:43.955Z,0.90
2023-07-25T07:58:25.663Z,0.85
2023-07-25T07:59:11.249Z,0.73
2023-07-25T07:59:53.416Z,0.55
2023-07-25T08:00:35.225Z,0.60
2023-07-25T08:01:24.965Z,0.68
2023-07-25T08:02:07.066Z,0.80
2023-07-25T08:02:48.847Z,0.75
2023-07-25T08:03:30.603Z,0.60
2023-07-25T08:04:12.516Z,1.20
2023-07-25T08:04:54.383Z,0.70
2023-07-25T08:05:36.220Z,0.90
2023-07-25T08:06:18.057Z,0.80
2023-07-25T08:06:59.727Z,0.88
2023-07-25T08:07:41.763Z,0.70
2023-07-25T08:08:23.511Z,0.80
2023-07-25T08:09:05.601Z,0.70
2023-07-25T08:09:47.377Z,0.52
2023-07-25T08:10:29.607Z,0.80
2023-07-25T08:11:11.335Z,0.70
2023-07-25T08:11:53.064Z,0.57
2023-07-25T08:12:35.307Z,0.88
2023-07-25T08:13:16.958Z,0.68
2023-07-25T08:13:59.090Z,0.70
2023-07-25T08:14:40.759Z,0.85
2023-07-25T08:15:22.571Z,0.50
2023-07-25T08:16:06.114Z,0.65
2023-07-25T08:16:47.814Z,0.60
2023-07-25T08:17:29.626Z,0.80
2023-07-25T08:18:11.306Z,0.57
2023-07-25T08:18:52.997Z,0.68
2023-07-25T08:19:34.663Z,0.63
2023-07-25T08:20:19.993Z,0.52
2023-07-25T08:21:03.350Z,0.75
2023-07-25T08:21:44.982Z,0.90
2023-07-25T08:22:26.646Z,0.70
2023-07-25T08:23:08.285Z,0.57
2023-07-25T08:23:49.899Z,0.60
2023-07-25T08:24:33.307Z,0.70
2023-07-25T08:25:15.014Z,0.60
2023-07-25T08:25:57.895Z,0.70
2023-07-25T08:26:39.633Z,0.88
2023-07-25T08:27:21.423Z,0.80
2023-07-25T08:28:03.157Z,0.50
2023-07-25T08:28:44.748Z,0.90
2023-07-25T08:29:27.284Z,1.02
2023-07-25T08:30:09.366Z,0.70
2023-07-25T08:31:01.186Z,0.68
2023-07-25T08:31:42.823Z,0.65
2023-07-25T08:32:26.564Z,0.65
2023-07-25T08:33:08.435Z,0.50
2023-07-25T08:33:50.205Z,0.50
2023-07-25T08:34:31.799Z,0.73
2023-07-25T08:35:13.422Z,0.52
2023-07-25T08:35:55.950Z,0.63
2023-07-25T08:36:37.597Z,0.73
2023-07-25T08:37:19.206Z,0.80
2023-07-25T08:38:00.905Z,0.70
2023-07-25T08:38:42.978Z,0.60
2023-07-25T08:39:24.601Z,0.60
2023-07-25T08:40:06.909Z,0.70
2023-07-25T08:40:55.938Z,0.60
2023-07-25T08:41:43.908Z,0.60
2023-07-25T08:42:26.713Z,0.70
2023-07-25T08:43:12.178Z,1.00
2023-07-25T08:43:55.921Z,0.60
2023-07-25T08:44:40.425Z,1.00
2023-07-25T08:45:22.869Z,1.00
2023-07-25T08:46:09.520Z,0.68
2023-07-25T08:46:53.769Z,0.55
2023-07-25T08:47:40.651Z,0.55
2023-07-25T08:48:25.135Z,0.60
2023-07-25T08:49:15.023Z,0.70
2023-07-25T08:50:01.997Z,0.50
2023-07-25T08:50:47.085Z,0.50
2023-07-25T08:51:32.212Z,0.70
2023-07-25T08:52:17.853Z,0.70
2023-07-25T08:53:02.317Z,0.55
2023-07-25T08:53:52.458Z,0.50
2023-07-25T08:54:36.172Z,0.60
2023-07-25T08:55:18.240Z,0.82
2023-07-25T08:56:01.449Z,0.60
2023-07-25T08:56:43.280Z,0.70
2023-07-25T08:57:27.534Z,0.90
2023-07-25T08:58:09.883Z,0.60
2023-07-25T08:58:53.082Z,0.90
2023-07-25T08:59:35.327Z,0.98
2023-07-25T09:00:18.231Z,0.75
2023-07-25T09:01:00.799Z,0.63
2023-07-25T09:01:43.246Z,0.52
2023-07-25T09:02:26.572Z,0.60
2023-07-25T09:03:08.683Z,0.75
2023-07-25T09:03:52.270Z,0.63
2023-07-25T09:04:34.419Z,0.50
2023-07-25T09:05:16.386Z,0.60
2023-07-25T09:05:59.767Z,0.55
2023-07-25T09:06:41.841Z,0.55
2023-07-25T09:07:23.516Z,0.80
2023-07-25T09:08:05.326Z,0.60
2023-07-25T09:08:47.214Z,0.70
2023-07-25T09:09:28.905Z,0.80
2023-07-25T09:10:12.088Z,0.65
2023-07-25T09:10:57.441Z,0.95
2023-07-25T09:11:40.848Z,0.82
2023-07-25T09:12:22.794Z,0.68
2023-07-25T09:13:04.463Z,0.75
2023-07-25T09:13:46.259Z,0.80
2023-07-25T09:14:28.248Z,0.70
2023-07-25T09:15:10.275Z,0.55
2023-07-25T09:15:52.011Z,0.63
2023-07-25T09:16:34.836Z,0.75
2023-07-25T09:17:16.496Z,0.82
2023-07-25T09:17:58.256Z,1.20
2023-07-25T09:18:39.942Z,1.13
2023-07-25T09:19:22.006Z,1.48
2023-07-25T09:20:04.482Z,1.55
2023-07-25T09:20:46.874Z,2.28
2023-07-25T09:21:29.339Z,1.08
2023-07-25T09:22:34.539Z,1.33
2023-07-25T09:23:22.534Z,0.90